createdAt,value
2023-01-31T00:01:40.191Z,42.75
2023-01-31T00:04:11.375Z,45.63
2023-01-31T00:06:43.725Z,45.58
2023-01-31T00:09:12.292Z,45.65
2023-01-31T00:11:39.326Z,43.78
2023-01-31T00:14:07.247Z,43.08
2023-01-31T00:16:35.088Z,40.78
2023-01-31T00:19:03.502Z,44.35
2023-01-31T00:21:32.318Z,44.75
2023-01-31T00:24:00.283Z,45.70
2023-01-31T00:26:33.008Z,42.78
2023-01-31T00:29:02.103Z,44.60
2023-01-31T00:31:32.395Z,44.88
2023-01-31T00:33:59.799Z,42.58
2023-01-31T00:36:30.781Z,43.97
2023-01-31T00:38:59.914Z,42.13
2023-01-31T00:41:28.360Z,44.47
2023-01-31T00:43:56.025Z,43.42
2023-01-31T00:46:23.938Z,43.72
2023-01-31T00:48:51.346Z,44.38
2023-01-31T00:51:19.245Z,43.05
2023-01-31T00:53:47.057Z,43.38
2023-01-31T00:56:17.730Z,42.90
2023-01-31T00:58:45.233Z,42.78
2023-01-31T01:01:26.896Z,42.90
2023-01-31T01:03:55.789Z,42.90
2023-01-31T01:06:23.619Z,43.75
2023-01-31T01:08:51.963Z,41.78
2023-01-31T01:11:25.830Z,42.00
2023-01-31T01:13:53.128Z,40.97
2023-01-31T01:16:24.635Z,40.22
2023-01-31T01:18:54.868Z,42.03
2023-01-31T01:21:25.420Z,42.67
2023-01-31T01:23:52.763Z,40.75
2023-01-31T01:26:22.386Z,39.67
2023-01-31T01:28:50.331Z,40.17
2023-01-31T01:31:18.871Z,40.38
2023-01-31T01:33:47.779Z,43.95
2023-01-31T01:36:17.288Z,41.47
2023-01-31T01:38:45.741Z,41.83
2023-01-31T01:41:13.643Z,41.72
2023-01-31T01:43:55.588Z,37.35
2023-01-31T01:46:36.739Z,39.25
2023-01-31T01:49:39.483Z,38.45
2023-01-31T01:52:11.195Z,39.13
2023-01-31T01:54:57.753Z,37.53
2023-01-31T01:57:36.675Z,37.65
2023-01-31T02:00:25.649Z,39.47
2023-01-31T02:02:56.697Z,36.35
2023-01-31T02:05:32.413Z,35.50
2023-01-31T02:08:01.156Z,35.05
2023-01-31T02:10:38.155Z,35.15
2023-01-31T02:13:07.161Z,35.97
2023-01-31T02:15:35.878Z,35.58
2023-01-31T02:18:03.289Z,34.33
2023-01-31T02:20:49.153Z,32.13
2023-01-31T02:23:47.261Z,33.40
2023-01-31T02:26:39.423Z,31.70
2023-01-31T02:29:24.127Z,32.72
2023-01-31T02:32:28.787Z,33.03
2023-01-31T02:35:04.126Z,32.53
2023-01-31T02:37:57.237Z,31.10
2023-01-31T02:40:59.603Z,30.00
2023-01-31T02:43:30.749Z,29.80
2023-01-31T02:46:16.703Z,29.10
2023-01-31T02:48:57.273Z,28.55
2023-01-31T02:51:32.221Z,28.38
2023-01-31T02:54:15.812Z,25.10
2023-01-31T02:56:46.138Z,27.58
2023-01-31T02:59:26.863Z,24.63
2023-01-31T03:02:00.869Z,25.08
2023-01-31T03:04:33.756Z,24.13
2023-01-31T03:07:26.931Z,23.83
2023-01-31T03:10:33.173Z,21.63
2023-01-31T03:13:33.631Z,22.00
2023-01-31T03:16:40.301Z,20.90
2023-01-31T03:19:21.130Z,21.65
2023-01-31T03:22:01.445Z,21.35
2023-01-31T03:24:30.610Z,22.02
2023-01-31T03:27:00.400Z,20.92
2023-01-31T03:29:30.010Z,20.38
2023-01-31T03:32:04.931Z,19.50
2023-01-31T03:34:33.270Z,19.85
2023-01-31T03:37:31.734Z,18.67
2023-01-31T03:40:25.290Z,17.70
2023-01-31T03:45:46.865Z,17.60
2023-01-31T03:48:17.912Z,15.05
2023-01-31T03:50:58.715Z,15.65
2023-01-31T03:53:41.451Z,14.93
2023-01-31T03:56:17.336Z,15.02
2023-01-31T03:58:50.920Z,14.98
2023-01-31T04:01:20.474Z,14.10
2023-01-31T04:04:01.962Z,13.15
2023-01-31T04:06:30.131Z,12.35
2023-01-31T04:08:58.591Z,12.57
2023-01-31T04:11:27.629Z,12.15
2023-01-31T04:13:54.780Z,11.20
2023-01-31T04:16:21.870Z,10.77
2023-01-31T04:18:48.877Z,11.73
2023-01-31T04:21:15.893Z,9.95
2023-01-31T04:23:42.925Z,10.63
2023-01-31T04:26:10.017Z,11.38
2023-01-31T04:28:37.060Z,9.85
2023-01-31T04:31:04.272Z,10.00
2023-01-31T04:33:31.986Z,8.98
2023-01-31T04:35:59.054Z,8.90
2023-01-31T04:38:26.026Z,10.55
2023-01-31T04:40:53.006Z,8.90
2023-01-31T04:43:19.981Z,9.05
2023-01-31T04:45:47.758Z,9.18
2023-01-31T04:48:14.716Z,7.97
2023-01-31T04:50:41.686Z,7.82
2023-01-31T04:53:09.458Z,7.50
2023-01-31T04:55:36.632Z,8.18
2023-01-31T04:58:05.788Z,7.15
2023-01-31T05:00:33.799Z,7.57
2023-01-31T05:03:01.327Z,8.00
2023-01-31T05:05:28.475Z,6.95
2023-01-31T05:07:55.419Z,7.38
2023-01-31T05:10:22.379Z,6.88
2023-01-31T05:12:49.346Z,7.22
2023-01-31T05:15:16.588Z,6.97
2023-01-31T05:17:43.664Z,6.93
2023-01-31T05:20:11.345Z,6.72
2023-01-31T05:22:38.284Z,6.82
2023-01-31T05:25:05.983Z,6.47
2023-01-31T05:27:33.619Z,6.50
2023-01-31T05:30:01.417Z,6.10
2023-01-31T05:32:28.916Z,7.30
2023-01-31T05:34:56.200Z,6.05
2023-01-31T05:37:23.403Z,7.00
2023-01-31T05:39:51.085Z,6.03
2023-01-31T05:42:18.033Z,6.07
2023-01-31T05:44:45.052Z,5.72
2023-01-31T05:47:12.926Z,5.63
2023-01-31T05:49:40.202Z,5.00
2023-01-31T05:52:07.240Z,5.47
2023-01-31T05:54:34.658Z,5.13
2023-01-31T05:57:02.698Z,4.68
2023-01-31T05:59:31.303Z,4.53
2023-01-31T06:01:58.285Z,4.30
2023-01-31T06:04:25.302Z,5.03
2023-01-31T06:06:52.291Z,4.65
2023-01-31T06:09:19.317Z,4.43
2023-01-31T06:11:46.219Z,4.32
2023-01-31T06:14:13.174Z,3.85
2023-01-31T06:16:40.132Z,4.05
2023-01-31T06:19:07.745Z,3.38
2023-01-31T06:21:35.250Z,4.07
2023-01-31T06:24:02.224Z,4.10
2023-01-31T06:26:29.278Z,3.67
2023-01-31T06:28:56.694Z,4.00
2023-01-31T06:31:23.730Z,3.60
2023-01-31T06:33:50.935Z,3.58
2023-01-31T06:36:19.596Z,3.47
2023-01-31T06:38:51.029Z,4.55
2023-01-31T06:41:21.276Z,4.10
2023-01-31T06:43:48.323Z,4.80
2023-01-31T06:46:15.644Z,4.10
2023-01-31T06:48:42.722Z,4.32
2023-01-31T06:51:10.213Z,3.58
2023-01-31T06:53:37.096Z,3.42
2023-01-31T06:56:04.242Z,3.63
2023-01-31T06:58:31.420Z,3.88
2023-01-31T07:01:03.629Z,4.18
2023-01-31T07:03:30.544Z,3.10
2023-01-31T07:05:57.745Z,3.63
2023-01-31T07:08:24.723Z,4.00
2023-01-31T07:10:51.609Z,2.80
2023-01-31T07:13:19.972Z,3.10
2023-01-31T07:15:46.906Z,2.92
2023-01-31T07:18:13.905Z,3.15
2023-01-31T07:20:42.184Z,3.20
2023-01-31T07:23:09.671Z,3.88
2023-01-31T07:25:36.730Z,3.58
2023-01-31T07:28:04.289Z,4.03
2023-01-31T07:30:32.123Z,3.28
2023-01-31T07:33:00.568Z,4.68
2023-01-31T07:35:28.328Z,4.10
2023-01-31T07:37:55.415Z,3.75
2023-01-31T07:40:22.416Z,3.83
2023-01-31T07:42:49.413Z,3.85
2023-01-31T07:45:23.438Z,3.95
2023-01-31T07:47:51.742Z,4.35
2023-01-31T07:50:19.457Z,4.80
2023-01-31T07:52:48.232Z,4.45
2023-01-31T07:55:15.182Z,4.55
2023-01-31T07:57:42.136Z,4.50
2023-01-31T08:00:29.769Z,4.63
2023-01-31T08:03:15.174Z,4.30
2023-01-31T08:05:42.093Z,3.53
2023-01-31T08:08:11.700Z,3.88
2023-01-31T08:10:39.354Z,4.10
2023-01-31T08:13:06.595Z,4.13
2023-01-31T08:15:34.244Z,8.95
2023-01-31T08:18:02.128Z,7.68
2023-01-31T08:20:30.781Z,6.22
2023-01-31T08:23:00.487Z,10.20
2023-01-31T08:25:31.999Z,8.35
2023-01-31T08:28:00.403Z,5.53
2023-01-31T08:30:28.828Z,5.93
2023-01-31T08:32:56.835Z,3.88
2023-01-31T08:35:26.344Z,6.28
2023-01-31T08:38:00.934Z,4.50
2023-01-31T08:40:34.305Z,6.18
2023-01-31T08:43:01.665Z,6.63
2023-01-31T08:45:30.357Z,6.30
2023-01-31T08:47:59.572Z,5.18
2023-01-31T08:50:29.091Z,6.63
2023-01-31T08:52:57.566Z,8.10
2023-01-31T08:55:25.355Z,5.70
2023-01-31T08:57:59.809Z,4.72
2023-01-31T09:00:27.879Z,6.28
2023-01-31T09:02:56.474Z,5.88
2023-01-31T09:05:25.242Z,9.55
2023-01-31T09:07:53.133Z,4.80
2023-01-31T09:10:21.474Z,6.97
2023-01-31T09:12:48.885Z,9.20
2023-01-31T09:15:16.123Z,5.75
2023-01-31T09:17:44.363Z,4.07
2023-01-31T09:20:11.843Z,4.43
2023-01-31T09:22:38.964Z,4.90
2023-01-31T09:25:07.001Z,3.35
2023-01-31T09:27:35.295Z,2.88
2023-01-31T09:30:02.458Z,3.95
2023-01-31T11:25:22.956Z,33.70
2023-01-31T11:27:54.432Z,32.97
2023-01-31T11:30:32.578Z,33.40
2023-01-31T11:32:59.633Z,34.53
2023-01-31T11:35:32.496Z,35.55
2023-01-31T11:38:20.353Z,33.60
2023-01-31T11:40:47.352Z,31.42
2023-01-31T11:45:45.390Z,29.92
2023-01-31T11:48:18.622Z,31.20
2023-01-31T11:50:57.119Z,29.92
2023-01-31T11:53:32.781Z,29.08
2023-01-31T15:32:49.957Z,17.33
2023-01-31T15:35:25.695Z,18.75
2023-01-31T15:38:32.450Z,22.25
2023-01-31T15:41:26.737Z,24.95
2023-01-31T15:43:56.953Z,26.10
2023-01-31T15:46:35.884Z,25.23
2023-01-31T15:49:22.992Z,24.48
2023-01-31T15:52:08.135Z,26.60
2023-01-31T15:54:35.601Z,27.60
2023-01-31T15:57:04.229Z,28.23
2023-01-31T15:59:33.702Z,24.77
2023-01-31T16:02:02.771Z,23.20
2023-01-31T16:04:30.473Z,22.58
2023-01-31T16:06:58.773Z,23.08
2023-01-31T16:09:33.457Z,23.50
2023-01-31T16:12:02.188Z,23.50
2023-01-31T16:14:30.127Z,22.25
2023-01-31T16:16:58.528Z,22.77
2023-01-31T16:19:32.199Z,21.90
2023-01-31T16:21:59.707Z,22.13
2023-01-31T16:24:26.885Z,20.55
2023-01-31T16:27:13.832Z,18.90
2023-01-31T16:29:51.856Z,21.88
2023-01-31T16:32:31.815Z,24.88
2023-01-31T16:35:05.797Z,24.65
2023-01-31T16:37:37.520Z,26.00
2023-01-31T16:40:27.667Z,26.30
2023-01-31T16:43:19.184Z,25.98
2023-01-31T16:45:58.171Z,23.63
2023-01-31T16:48:29.379Z,25.38
2023-01-31T16:50:58.622Z,23.52
2023-01-31T16:53:35.248Z,25.08
2023-01-31T16:56:14.514Z,26.40
2023-01-31T16:58:50.293Z,28.33
2023-01-31T17:01:24.991Z,27.88
2023-01-31T17:04:09.553Z,25.50
2023-01-31T17:06:37.182Z,24.20
2023-01-31T17:09:06.310Z,26.30
2023-01-31T17:11:42.708Z,26.17
2023-01-31T17:22:03.461Z,26.27
2023-01-31T17:24:30.481Z,29.20
2023-01-31T17:26:57.784Z,26.88
2023-01-31T17:29:26.053Z,37.30
2023-01-31T17:31:53.105Z,44.60
2023-01-31T17:34:21.257Z,35.05
2023-01-31T17:36:48.229Z,32.85
2023-01-31T17:39:15.257Z,33.95
2023-01-31T19:29:39.791Z,19.20
2023-01-31T19:32:06.971Z,21.70
2023-01-31T19:34:36.380Z,19.33
2023-01-31T19:37:03.797Z,15.77
2023-01-31T19:39:30.800Z,15.85
2023-01-31T19:41:58.673Z,16.67
2023-01-31T19:44:25.888Z,15.40
2023-01-31T19:46:53.893Z,14.30
2023-01-31T19:49:24.120Z,15.23
2023-01-31T19:51:51.033Z,14.93
2023-01-31T19:54:19.264Z,14.43
2023-01-31T19:56:46.585Z,14.50
2023-01-31T19:59:13.741Z,15.35
2023-01-31T20:01:40.666Z,13.32
2023-01-31T20:04:07.714Z,13.55
2023-01-31T20:06:35.064Z,13.70
2023-01-31T20:09:04.944Z,11.93
2023-01-31T20:11:32.389Z,10.65
2023-01-31T20:14:00.252Z,11.20
2023-01-31T20:16:27.341Z,10.85
2023-01-31T20:18:56.233Z,10.02
2023-01-31T20:21:23.799Z,11.48
2023-01-31T20:23:50.849Z,13.50
2023-01-31T20:26:19.381Z,36.53
2023-01-31T20:28:46.426Z,17.58
2023-01-31T20:31:15.729Z,15.07
2023-01-31T20:33:42.984Z,14.70
2023-01-31T20:36:10.613Z,13.32
2023-01-31T20:38:38.674Z,15.98
2023-01-31T20:41:07.375Z,14.70
2023-01-31T20:43:35.098Z,15.52
2023-01-31T20:46:07.208Z,16.05
2023-01-31T20:48:34.206Z,15.38
2023-01-31T20:51:01.379Z,16.50
2023-01-31T20:53:31.905Z,14.90
2023-01-31T20:56:09.920Z,15.80
2023-01-31T20:58:38.944Z,14.75
2023-01-31T21:01:07.110Z,14.55
2023-01-31T21:03:35.586Z,16.83
2023-01-31T21:06:03.693Z,21.38
2023-01-31T21:08:32.033Z,22.95
2023-01-31T21:10:59.660Z,21.52
2023-01-31T21:13:29.049Z,21.20
2023-01-31T21:15:58.530Z,20.50
2023-01-31T21:18:27.627Z,19.60
2023-01-31T21:20:54.851Z,16.98
2023-01-31T21:23:22.829Z,14.20
2023-01-31T21:25:49.813Z,14.13
2023-01-31T21:28:17.407Z,16.63
2023-01-31T21:30:59.788Z,16.70
2023-01-31T21:33:28.279Z,17.77
2023-01-31T21:35:58.104Z,23.88
2023-01-31T21:38:26.827Z,20.38
2023-01-31T21:41:12.423Z,20.52
2023-01-31T21:43:42.459Z,17.90
2023-01-31T21:46:10.867Z,16.15
2023-01-31T21:48:38.576Z,15.10
2023-01-31T21:51:07.933Z,14.38
2023-01-31T21:53:35.665Z,15.60
2023-01-31T21:56:08.268Z,12.82
2023-01-31T21:58:37.308Z,14.38
2023-01-31T22:01:13.127Z,15.02
2023-01-31T22:03:44.250Z,13.82
2023-01-31T22:06:13.205Z,12.70
2023-01-31T22:08:40.212Z,16.02
2023-01-31T22:11:16.424Z,14.50
2023-01-31T22:13:49.192Z,17.77
2023-01-31T22:16:20.759Z,19.70
2023-01-31T22:18:48.291Z,16.60
2023-01-31T22:21:26.844Z,12.98
2023-01-31T22:23:56.511Z,13.02
2023-01-31T22:26:26.345Z,12.30
2023-01-31T22:28:56.656Z,12.45
2023-01-31T22:31:24.212Z,13.82
2023-01-31T22:33:51.638Z,13.40
2023-01-31T22:36:18.991Z,14.93
2023-01-31T22:38:46.366Z,16.30
2023-01-31T22:41:15.263Z,16.75
2023-01-31T22:43:44.210Z,16.77
2023-01-31T22:46:14.049Z,15.45
2023-01-31T22:48:41.632Z,15.45
2023-01-31T22:51:12.655Z,14.95
2023-01-31T22:53:40.456Z,13.80
2023-01-31T22:56:12.340Z,12.10
2023-01-31T22:58:39.403Z,12.40
2023-01-31T23:01:21.808Z,11.52
2023-01-31T23:03:49.533Z,10.35
2023-01-31T23:06:17.955Z,9.70
2023-01-31T23:08:45.390Z,10.43
2023-01-31T23:11:14.571Z,11.07
2023-01-31T23:13:42.563Z,10.18
2023-01-31T23:16:14.707Z,9.60
2023-01-31T23:18:41.780Z,11.10
2023-01-31T23:21:13.967Z,12.00
2023-01-31T23:23:42.812Z,10.23
2023-01-31T23:26:10.519Z,11.70
2023-01-31T23:28:37.924Z,12.07
2023-01-31T23:31:05.181Z,11.88
2023-01-31T23:33:32.257Z,10.38
2023-01-31T23:35:59.188Z,10.38
2023-01-31T23:38:26.204Z,10.50
2023-01-31T23:40:54.339Z,11.82
2023-01-31T23:43:22.133Z,11.50
2023-01-31T23:45:49.779Z,12.45
2023-01-31T23:48:17.160Z,13.05
2023-01-31T23:50:44.959Z,10.60
2023-01-31T23:53:11.934Z,10.57
2023-01-31T23:55:39.003Z,11.82
2023-01-31T23:58:06.127Z,12.02
